sensor_id;sensor_type;location;lat;lon;timestamp;P1;durP1;ratioP1;P2;durP2;ratioP2
15287;SDS011;7745;48.708;9.026;2022-08-02T00:01:53;3.97;;;3.57;;
15287;SDS011;7745;48.708;9.026;2022-08-02T00:04:19;4.53;;;3.83;;
15287;SDS011;7745;48.708;9.026;2022-08-02T00:06:48;4.80;;;3.40;;
15287;SDS011;7745;48.708;9.026;2022-08-02T00:09:15;6.03;;;3.40;;
15287;SDS011;7745;48.708;9.026;2022-08-02T00:11:42;5.67;;;3.80;;
15287;SDS011;7745;48.708;9.026;2022-08-02T00:14:09;6.77;;;4.03;;
15287;SDS011;7745;48.708;9.026;2022-08-02T00:16:35;3.50;;;3.20;;
15287;SDS011;7745;48.708;9.026;2022-08-02T00:19:03;3.50;;;3.20;;
15287;SDS011;7745;48.708;9.026;2022-08-02T00:21:30;4.40;;;3.53;;
15287;SDS011;7745;48.708;9.026;2022-08-02T00:23:58;5.67;;;4.00;;
15287;SDS011;7745;48.708;9.026;2022-08-02T00:26:25;4.30;;;3.57;;
15287;SDS011;7745;48.708;9.026;2022-08-02T00:28:52;4.63;;;2.90;;
15287;SDS011;7745;48.708;9.026;2022-08-02T00:31:19;4.40;;;3.40;;
15287;SDS011;7745;48.708;9.026;2022-08-02T00:33:46;5.33;;;3.70;;
15287;SDS011;7745;48.708;9.026;2022-08-02T00:36:13;4.43;;;3.47;;
15287;SDS011;7745;48.708;9.026;2022-08-02T00:38:40;6.50;;;3.67;;
15287;SDS011;7745;48.708;9.026;2022-08-02T00:41:11;8.50;;;3.60;;
15287;SDS011;7745;48.708;9.026;2022-08-02T00:43:40;4.17;;;3.50;;
15287;SDS011;7745;48.708;9.026;2022-08-02T00:46:07;3.83;;;3.30;;
15287;SDS011;7745;48.708;9.026;2022-08-02T00:48:34;4.90;;;3.30;;
15287;SDS011;7745;48.708;9.026;2022-08-02T00:51:01;6.23;;;3.50;;
15287;SDS011;7745;48.708;9.026;2022-08-02T00:53:29;4.60;;;3.00;;
15287;SDS011;7745;48.708;9.026;2022-08-02T00:55:56;3.97;;;2.77;;
15287;SDS011;7745;48.708;9.026;2022-08-02T00:58:24;3.80;;;2.70;;
15287;SDS011;7745;48.708;9.026;2022-08-02T01:00:51;2.70;;;2.47;;
15287;SDS011;7745;48.708;9.026;2022-08-02T01:03:18;3.10;;;2.43;;
15287;SDS011;7745;48.708;9.026;2022-08-02T01:05:45;5.17;;;2.80;;
15287;SDS011;7745;48.708;9.026;2022-08-02T01:08:12;4.07;;;2.93;;
15287;SDS011;7745;48.708;9.026;2022-08-02T01:10:39;5.77;;;2.97;;
15287;SDS011;7745;48.708;9.026;2022-08-02T01:13:06;4.00;;;2.20;;
15287;SDS011;7745;48.708;9.026;2022-08-02T01:15:34;3.37;;;2.97;;
15287;SDS011;7745;48.708;9.026;2022-08-02T01:18:09;3.80;;;2.93;;
15287;SDS011;7745;48.708;9.026;2022-08-02T01:20:48;5.07;;;2.60;;
15287;SDS011;7745;48.708;9.026;2022-08-02T01:23:34;3.67;;;2.83;;
15287;SDS011;7745;48.708;9.026;2022-08-02T01:29:07;4.70;;;3.03;;
15287;SDS011;7745;48.708;9.026;2022-08-02T01:31:40;3.67;;;2.40;;
15287;SDS011;7745;48.708;9.026;2022-08-02T01:34:15;3.63;;;2.67;;
15287;SDS011;7745;48.708;9.026;2022-08-02T01:36:47;5.47;;;2.83;;
15287;SDS011;7745;48.708;9.026;2022-08-02T01:39:20;3.73;;;2.60;;
15287;SDS011;7745;48.708;9.026;2022-08-02T01:41:51;2.80;;;2.40;;
15287;SDS011;7745;48.708;9.026;2022-08-02T01:44:21;3.10;;;2.73;;
15287;SDS011;7745;48.708;9.026;2022-08-02T01:46:52;3.10;;;2.23;;
15287;SDS011;7745;48.708;9.026;2022-08-02T01:49:25;4.47;;;2.10;;
15287;SDS011;7745;48.708;9.026;2022-08-02T01:51:54;3.60;;;2.40;;
15287;SDS011;7745;48.708;9.026;2022-08-02T01:54:41;3.30;;;3.00;;
15287;SDS011;7745;48.708;9.026;2022-08-02T01:57:10;4.73;;;3.10;;
15287;SDS011;7745;48.708;9.026;2022-08-02T01:59:41;3.57;;;2.30;;
15287;SDS011;7745;48.708;9.026;2022-08-02T02:02:10;4.17;;;2.80;;
15287;SDS011;7745;48.708;9.026;2022-08-02T02:04:40;6.17;;;2.90;;
15287;SDS011;7745;48.708;9.026;2022-08-02T02:07:11;3.57;;;3.00;;
15287;SDS011;7745;48.708;9.026;2022-08-02T02:09:40;3.80;;;2.70;;
15287;SDS011;7745;48.708;9.026;2022-08-02T02:12:08;5.23;;;2.97;;
15287;SDS011;7745;48.708;9.026;2022-08-02T02:14:37;4.53;;;3.13;;
15287;SDS011;7745;48.708;9.026;2022-08-02T02:17:07;2.97;;;2.73;;
15287;SDS011;7745;48.708;9.026;2022-08-02T02:19:36;5.10;;;3.00;;
15287;SDS011;7745;48.708;9.026;2022-08-02T02:22:04;4.07;;;3.03;;
15287;SDS011;7745;48.708;9.026;2022-08-02T02:24:31;3.53;;;3.00;;
15287;SDS011;7745;48.708;9.026;2022-08-02T02:26:59;5.67;;;3.30;;
15287;SDS011;7745;48.708;9.026;2022-08-02T02:29:28;4.50;;;3.40;;
15287;SDS011;7745;48.708;9.026;2022-08-02T02:31:57;5.40;;;3.10;;
15287;SDS011;7745;48.708;9.026;2022-08-02T02:34:28;4.00;;;3.27;;
15287;SDS011;7745;48.708;9.026;2022-08-02T02:36:58;4.27;;;2.97;;
15287;SDS011;7745;48.708;9.026;2022-08-02T02:39:28;4.50;;;3.10;;
15287;SDS011;7745;48.708;9.026;2022-08-02T02:42:00;4.70;;;3.33;;
15287;SDS011;7745;48.708;9.026;2022-08-02T02:44:29;5.03;;;3.13;;
15287;SDS011;7745;48.708;9.026;2022-08-02T02:46:58;4.57;;;3.30;;
15287;SDS011;7745;48.708;9.026;2022-08-02T02:49:27;3.73;;;3.40;;
15287;SDS011;7745;48.708;9.026;2022-08-02T02:51:59;3.97;;;3.03;;
15287;SDS011;7745;48.708;9.026;2022-08-02T02:54:26;5.07;;;3.07;;
15287;SDS011;7745;48.708;9.026;2022-08-02T02:56:55;4.63;;;3.43;;
15287;SDS011;7745;48.708;9.026;2022-08-02T02:59:24;3.97;;;3.33;;
15287;SDS011;7745;48.708;9.026;2022-08-02T03:01:51;3.63;;;2.93;;
15287;SDS011;7745;48.708;9.026;2022-08-02T03:04:19;4.30;;;3.43;;
15287;SDS011;7745;48.708;9.026;2022-08-02T03:06:48;4.60;;;2.87;;
15287;SDS011;7745;48.708;9.026;2022-08-02T03:09:15;3.73;;;3.20;;
15287;SDS011;7745;48.708;9.026;2022-08-02T03:11:42;3.90;;;3.07;;
15287;SDS011;7745;48.708;9.026;2022-08-02T03:14:10;4.33;;;3.00;;
15287;SDS011;7745;48.708;9.026;2022-08-02T03:16:41;3.90;;;2.90;;
15287;SDS011;7745;48.708;9.026;2022-08-02T03:19:09;4.10;;;3.27;;
15287;SDS011;7745;48.708;9.026;2022-08-02T03:21:35;3.63;;;3.33;;
15287;SDS011;7745;48.708;9.026;2022-08-02T03:24:04;3.07;;;2.83;;
15287;SDS011;7745;48.708;9.026;2022-08-02T03:26:32;4.00;;;3.10;;
15287;SDS011;7745;48.708;9.026;2022-08-02T03:28:59;5.73;;;3.10;;
15287;SDS011;7745;48.708;9.026;2022-08-02T03:31:26;4.50;;;3.00;;
15287;SDS011;7745;48.708;9.026;2022-08-02T03:33:54;5.43;;;2.87;;
15287;SDS011;7745;48.708;9.026;2022-08-02T03:36:24;5.20;;;3.03;;
15287;SDS011;7745;48.708;9.026;2022-08-02T03:38:53;5.80;;;3.07;;
15287;SDS011;7745;48.708;9.026;2022-08-02T03:41:22;5.53;;;2.77;;
15287;SDS011;7745;48.708;9.026;2022-08-02T03:43:50;4.37;;;3.10;;
15287;SDS011;7745;48.708;9.026;2022-08-02T03:46:18;5.47;;;3.07;;
15287;SDS011;7745;48.708;9.026;2022-08-02T03:48:46;3.10;;;2.80;;
15287;SDS011;7745;48.708;9.026;2022-08-02T03:51:14;4.07;;;2.90;;
15287;SDS011;7745;48.708;9.026;2022-08-02T03:53:41;5.00;;;2.83;;
15287;SDS011;7745;48.708;9.026;2022-08-02T03:56:08;3.17;;;2.87;;
15287;SDS011;7745;48.708;9.026;2022-08-02T03:58:38;4.00;;;2.53;;
15287;SDS011;7745;48.708;9.026;2022-08-02T04:01:04;6.00;;;2.90;;
15287;SDS011;7745;48.708;9.026;2022-08-02T04:03:31;5.20;;;3.00;;
15287;SDS011;7745;48.708;9.026;2022-08-02T04:05:58;6.60;;;3.00;;
15287;SDS011;7745;48.708;9.026;2022-08-02T04:08:25;5.43;;;2.80;;
15287;SDS011;7745;48.708;9.026;2022-08-02T04:10:52;3.80;;;2.70;;
15287;SDS011;7745;48.708;9.026;2022-08-02T04:13:38;3.03;;;2.80;;
15287;SDS011;7745;48.708;9.026;2022-08-02T04:16:07;4.27;;;3.07;;
15287;SDS011;7745;48.708;9.026;2022-08-02T04:18:39;6.57;;;3.13;;
15287;SDS011;7745;48.708;9.026;2022-08-02T04:21:10;4.20;;;3.00;;
15287;SDS011;7745;48.708;9.026;2022-08-02T04:23:40;3.77;;;2.60;;
15287;SDS011;7745;48.708;9.026;2022-08-02T04:26:09;3.00;;;2.70;;
15287;SDS011;7745;48.708;9.026;2022-08-02T04:28:38;5.20;;;2.60;;
15287;SDS011;7745;48.708;9.026;2022-08-02T04:31:06;4.50;;;2.70;;
15287;SDS011;7745;48.708;9.026;2022-08-02T04:33:33;4.13;;;2.50;;
15287;SDS011;7745;48.708;9.026;2022-08-02T04:36:05;6.43;;;2.93;;
15287;SDS011;7745;48.708;9.026;2022-08-02T04:38:32;4.87;;;2.90;;
15287;SDS011;7745;48.708;9.026;2022-08-02T04:40:59;4.37;;;2.77;;
15287;SDS011;7745;48.708;9.026;2022-08-02T04:43:26;3.17;;;2.77;;
15287;SDS011;7745;48.708;9.026;2022-08-02T04:45:54;3.97;;;2.67;;
15287;SDS011;7745;48.708;9.026;2022-08-02T04:48:21;5.67;;;2.70;;
15287;SDS011;7745;48.708;9.026;2022-08-02T04:50:49;3.67;;;2.97;;
15287;SDS011;7745;48.708;9.026;2022-08-02T04:53:16;4.00;;;2.97;;
15287;SDS011;7745;48.708;9.026;2022-08-02T04:55:43;4.47;;;3.00;;
15287;SDS011;7745;48.708;9.026;2022-08-02T04:58:10;4.73;;;3.00;;
15287;SDS011;7745;48.708;9.026;2022-08-02T05:00:37;6.87;;;3.10;;
15287;SDS011;7745;48.708;9.026;2022-08-02T05:03:05;2.70;;;2.50;;
15287;SDS011;7745;48.708;9.026;2022-08-02T05:05:32;4.40;;;2.60;;
15287;SDS011;7745;48.708;9.026;2022-08-02T05:07:59;6.77;;;2.70;;
15287;SDS011;7745;48.708;9.026;2022-08-02T05:10:26;3.57;;;2.53;;
15287;SDS011;7745;48.708;9.026;2022-08-02T05:12:53;5.73;;;3.23;;
15287;SDS011;7745;48.708;9.026;2022-08-02T05:15:19;6.33;;;3.00;;
15287;SDS011;7745;48.708;9.026;2022-08-02T05:17:47;8.30;;;3.07;;
15287;SDS011;7745;48.708;9.026;2022-08-02T05:20:15;3.87;;;2.87;;
15287;SDS011;7745;48.708;9.026;2022-08-02T05:22:43;5.93;;;3.07;;
15287;SDS011;7745;48.708;9.026;2022-08-02T05:25:10;6.70;;;3.70;;
15287;SDS011;7745;48.708;9.026;2022-08-02T05:27:37;4.70;;;3.37;;
15287;SDS011;7745;48.708;9.026;2022-08-02T05:30:05;3.50;;;3.20;;
15287;SDS011;7745;48.708;9.026;2022-08-02T05:32:33;9.73;;;3.80;;
15287;SDS011;7745;48.708;9.026;2022-08-02T05:35:01;5.37;;;3.47;;
15287;SDS011;7745;48.708;9.026;2022-08-02T05:37:29;4.23;;;3.07;;
15287;SDS011;7745;48.708;9.026;2022-08-02T05:39:56;8.23;;;3.33;;
15287;SDS011;7745;48.708;9.026;2022-08-02T05:42:23;7.77;;;3.13;;
15287;SDS011;7745;48.708;9.026;2022-08-02T05:44:50;6.57;;;3.57;;
15287;SDS011;7745;48.708;9.026;2022-08-02T05:47:17;5.10;;;3.33;;
15287;SDS011;7745;48.708;9.026;2022-08-02T05:49:44;7.23;;;3.60;;
15287;SDS011;7745;48.708;9.026;2022-08-02T05:52:13;4.87;;;3.50;;
15287;SDS011;7745;48.708;9.026;2022-08-02T05:54:46;6.63;;;3.93;;
15287;SDS011;7745;48.708;9.026;2022-08-02T05:57:23;8.53;;;4.10;;
15287;SDS011;7745;48.708;9.026;2022-08-02T05:59:59;5.13;;;4.17;;
15287;SDS011;7745;48.708;9.026;2022-08-02T06:02:34;5.63;;;3.93;;
15287;SDS011;7745;48.708;9.026;2022-08-02T06:05:09;5.17;;;3.83;;
15287;SDS011;7745;48.708;9.026;2022-08-02T06:07:39;4.43;;;3.97;;
15287;SDS011;7745;48.708;9.026;2022-08-02T06:10:09;5.97;;;4.10;;
15287;SDS011;7745;48.708;9.026;2022-08-02T06:12:40;3.83;;;3.20;;
15287;SDS011;7745;48.708;9.026;2022-08-02T06:15:11;8.20;;;3.53;;
15287;SDS011;7745;48.708;9.026;2022-08-02T06:17:39;6.10;;;3.80;;
15287;SDS011;7745;48.708;9.026;2022-08-02T06:20:07;7.27;;;3.67;;
15287;SDS011;7745;48.708;9.026;2022-08-02T06:22:39;8.43;;;3.93;;
15287;SDS011;7745;48.708;9.026;2022-08-02T06:25:09;4.97;;;3.60;;
15287;SDS011;7745;48.708;9.026;2022-08-02T06:27:37;3.90;;;3.47;;
15287;SDS011;7745;48.708;9.026;2022-08-02T06:30:05;6.10;;;3.90;;
15287;SDS011;7745;48.708;9.026;2022-08-02T06:32:33;10.00;;;4.27;;
15287;SDS011;7745;48.708;9.026;2022-08-02T06:35:01;4.83;;;3.80;;
15287;SDS011;7745;48.708;9.026;2022-08-02T06:37:30;6.60;;;3.90;;
15287;SDS011;7745;48.708;9.026;2022-08-02T06:40:05;26.03;;;5.23;;
15287;SDS011;7745;48.708;9.026;2022-08-02T06:42:43;12.80;;;4.57;;
15287;SDS011;7745;48.708;9.026;2022-08-02T06:45:14;7.67;;;4.07;;
15287;SDS011;7745;48.708;9.026;2022-08-02T06:47:41;5.47;;;4.20;;
15287;SDS011;7745;48.708;9.026;2022-08-02T06:50:08;8.00;;;4.00;;
15287;SDS011;7745;48.708;9.026;2022-08-02T06:52:35;8.37;;;4.83;;
15287;SDS011;7745;48.708;9.026;2022-08-02T06:55:03;6.43;;;4.47;;
15287;SDS011;7745;48.708;9.026;2022-08-02T06:57:32;7.00;;;4.60;;
15287;SDS011;7745;48.708;9.026;2022-08-02T07:00:00;13.77;;;4.70;;
15287;SDS011;7745;48.708;9.026;2022-08-02T07:02:29;5.37;;;4.03;;
15287;SDS011;7745;48.708;9.026;2022-08-02T07:04:57;5.67;;;4.70;;
15287;SDS011;7745;48.708;9.026;2022-08-02T07:07:24;7.07;;;5.10;;
15287;SDS011;7745;48.708;9.026;2022-08-02T07:09:52;7.87;;;4.90;;
15287;SDS011;7745;48.708;9.026;2022-08-02T07:12:19;11.77;;;4.50;;
15287;SDS011;7745;48.708;9.026;2022-08-02T07:14:47;7.77;;;5.13;;
15287;SDS011;7745;48.708;9.026;2022-08-02T07:17:14;7.93;;;5.00;;
15287;SDS011;7745;48.708;9.026;2022-08-02T07:19:41;8.05;;;4.60;;
15287;SDS011;7745;48.708;9.026;2022-08-02T07:22:08;5.68;;;4.82;;
15287;SDS011;7745;48.708;9.026;2022-08-02T07:24:36;7.27;;;4.97;;
15287;SDS011;7745;48.708;9.026;2022-08-02T07:27:04;7.50;;;5.13;;
15287;SDS011;7745;48.708;9.026;2022-08-02T07:29:31;8.98;;;4.68;;
15287;SDS011;7745;48.708;9.026;2022-08-02T07:31:59;5.70;;;4.88;;
15287;SDS011;7745;48.708;9.026;2022-08-02T07:34:26;6.78;;;4.75;;
15287;SDS011;7745;48.708;9.026;2022-08-02T07:36:53;5.57;;;4.53;;
15287;SDS011;7745;48.708;9.026;2022-08-02T07:39:20;7.50;;;4.43;;
15287;SDS011;7745;48.708;9.026;2022-08-02T07:41:47;5.90;;;4.97;;
15287;SDS011;7745;48.708;9.026;2022-08-02T07:44:16;6.97;;;4.72;;
15287;SDS011;7745;48.708;9.026;2022-08-02T07:46:43;8.68;;;4.28;;
15287;SDS011;7745;48.708;9.026;2022-08-02T07:49:11;6.43;;;4.53;;
15287;SDS011;7745;48.708;9.026;2022-08-02T07:51:42;6.05;;;4.47;;
15287;SDS011;7745;48.708;9.026;2022-08-02T07:54:09;6.38;;;4.65;;
15287;SDS011;7745;48.708;9.026;2022-08-02T07:56:39;6.05;;;5.07;;
15287;SDS011;7745;48.708;9.026;2022-08-02T07:59:06;6.32;;;4.90;;
15287;SDS011;7745;48.708;9.026;2022-08-02T08:01:34;7.07;;;5.45;;
15287;SDS011;7745;48.708;9.026;2022-08-02T08:04:01;8.43;;;5.30;;
15287;SDS011;7745;48.708;9.026;2022-08-02T08:06:29;7.47;;;4.95;;
15287;SDS011;7745;48.708;9.026;2022-08-02T08:08:56;6.38;;;5.20;;
15287;SDS011;7745;48.708;9.026;2022-08-02T08:11:23;6.72;;;5.25;;
15287;SDS011;7745;48.708;9.026;2022-08-02T08:13:50;7.20;;;5.45;;
15287;SDS011;7745;48.708;9.026;2022-08-02T08:16:17;5.65;;;4.90;;
15287;SDS011;7745;48.708;9.026;2022-08-02T08:18:44;7.80;;;5.68;;
15287;SDS011;7745;48.708;9.026;2022-08-02T08:21:11;5.70;;;5.10;;
15287;SDS011;7745;48.708;9.026;2022-08-02T08:23:39;6.80;;;4.57;;
15287;SDS011;7745;48.708;9.026;2022-08-02T08:26:06;6.65;;;4.80;;
15287;SDS011;7745;48.708;9.026;2022-08-02T08:28:33;7.25;;;5.25;;
15287;SDS011;7745;48.708;9.026;2022-08-02T08:31:00;5.50;;;4.75;;
15287;SDS011;7745;48.708;9.026;2022-08-02T08:33:27;7.53;;;5.35;;
15287;SDS011;7745;48.708;9.026;2022-08-02T08:35:54;9.07;;;4.93;;
15287;SDS011;7745;48.708;9.026;2022-08-02T08:38:21;5.90;;;5.40;;
15287;SDS011;7745;48.708;9.026;2022-08-02T08:40:49;4.85;;;4.30;;
15287;SDS011;7745;48.708;9.026;2022-08-02T08:43:17;5.47;;;4.95;;
15287;SDS011;7745;48.708;9.026;2022-08-02T08:45:43;6.75;;;4.53;;
15287;SDS011;7745;48.708;9.026;2022-08-02T08:48:11;6.78;;;4.78;;
15287;SDS011;7745;48.708;9.026;2022-08-02T08:50:42;6.28;;;4.70;;
15287;SDS011;7745;48.708;9.026;2022-08-02T08:53:13;5.55;;;4.20;;
15287;SDS011;7745;48.708;9.026;2022-08-02T08:55:41;5.20;;;4.57;;
15287;SDS011;7745;48.708;9.026;2022-08-02T08:58:10;5.22;;;4.72;;
15287;SDS011;7745;48.708;9.026;2022-08-02T09:00:38;6.05;;;4.47;;
15287;SDS011;7745;48.708;9.026;2022-08-02T09:03:06;6.70;;;4.50;;
15287;SDS011;7745;48.708;9.026;2022-08-02T09:05:34;6.78;;;4.88;;
15287;SDS011;7745;48.708;9.026;2022-08-02T09:08:02;5.53;;;4.50;;
15287;SDS011;7745;48.708;9.026;2022-08-02T09:10:33;5.50;;;4.57;;
15287;SDS011;7745;48.708;9.026;2022-08-02T09:13:05;5.68;;;4.07;;
15287;SDS011;7745;48.708;9.026;2022-08-02T09:15:40;5.45;;;4.32;;
15287;SDS011;7745;48.708;9.026;2022-08-02T09:18:08;4.80;;;4.22;;
15287;SDS011;7745;48.708;9.026;2022-08-02T09:20:50;6.00;;;4.25;;
15287;SDS011;7745;48.708;9.026;2022-08-02T09:23:18;4.80;;;4.10;;
15287;SDS011;7745;48.708;9.026;2022-08-02T09:25:54;6.10;;;4.10;;
15287;SDS011;7745;48.708;9.026;2022-08-02T09:28:26;6.32;;;4.13;;
15287;SDS011;7745;48.708;9.026;2022-08-02T09:30:57;4.18;;;3.83;;
15287;SDS011;7745;48.708;9.026;2022-08-02T09:33:29;4.13;;;3.75;;
15287;SDS011;7745;48.708;9.026;2022-08-02T09:36:00;4.97;;;4.45;;
15287;SDS011;7745;48.708;9.026;2022-08-02T09:38:28;6.68;;;4.00;;
15287;SDS011;7745;48.708;9.026;2022-08-02T09:40:55;4.18;;;3.78;;
15287;SDS011;7745;48.708;9.026;2022-08-02T09:43:34;6.07;;;4.07;;
15287;SDS011;7745;48.708;9.026;2022-08-02T09:46:08;4.68;;;4.20;;
15287;SDS011;7745;48.708;9.026;2022-08-02T09:48:45;5.95;;;3.70;;
15287;SDS011;7745;48.708;9.026;2022-08-02T09:51:15;4.95;;;3.63;;
15287;SDS011;7745;48.708;9.026;2022-08-02T09:53:43;3.97;;;3.58;;
15287;SDS011;7745;48.708;9.026;2022-08-02T09:56:09;5.35;;;3.88;;
15287;SDS011;7745;48.708;9.026;2022-08-02T09:58:38;7.63;;;4.30;;
15287;SDS011;7745;48.708;9.026;2022-08-02T10:01:05;5.22;;;3.92;;
15287;SDS011;7745;48.708;9.026;2022-08-02T10:03:32;3.67;;;3.30;;
15287;SDS011;7745;48.708;9.026;2022-08-02T10:05:59;5.47;;;3.67;;
15287;SDS011;7745;48.708;9.026;2022-08-02T10:08:27;5.55;;;3.60;;
15287;SDS011;7745;48.708;9.026;2022-08-02T10:10:54;6.80;;;3.50;;
15287;SDS011;7745;48.708;9.026;2022-08-02T10:13:26;5.70;;;3.85;;
15287;SDS011;7745;48.708;9.026;2022-08-02T10:15:55;4.43;;;3.55;;
15287;SDS011;7745;48.708;9.026;2022-08-02T10:18:22;8.35;;;3.70;;
15287;SDS011;7745;48.708;9.026;2022-08-02T10:20:50;3.65;;;3.35;;
15287;SDS011;7745;48.708;9.026;2022-08-02T10:23:20;3.50;;;3.00;;
15287;SDS011;7745;48.708;9.026;2022-08-02T10:25:47;4.53;;;3.28;;
15287;SDS011;7745;48.708;9.026;2022-08-02T10:28:17;3.17;;;2.97;;
15287;SDS011;7745;48.708;9.026;2022-08-02T10:30:51;3.63;;;3.33;;
15287;SDS011;7745;48.708;9.026;2022-08-02T10:33:21;4.65;;;3.30;;
15287;SDS011;7745;48.708;9.026;2022-08-02T10:35:50;6.15;;;3.45;;
15287;SDS011;7745;48.708;9.026;2022-08-02T10:38:21;4.45;;;3.40;;
15287;SDS011;7745;48.708;9.026;2022-08-02T10:40:50;3.45;;;3.15;;
15287;SDS011;7745;48.708;9.026;2022-08-02T10:49:02;3.35;;;3.10;;
15287;SDS011;7745;48.708;9.026;2022-08-02T10:54:22;7.60;;;3.60;;
15287;SDS011;7745;48.708;9.026;2022-08-02T10:56:51;4.50;;;3.35;;
15287;SDS011;7745;48.708;9.026;2022-08-02T10:59:23;9.00;;;3.88;;
15287;SDS011;7745;48.708;9.026;2022-08-02T11:01:51;5.47;;;3.40;;
15287;SDS011;7745;48.708;9.026;2022-08-02T11:04:31;5.35;;;3.20;;
15287;SDS011;7745;48.708;9.026;2022-08-02T11:07:18;4.10;;;3.70;;
15287;SDS011;7745;48.708;9.026;2022-08-02T11:09:47;4.38;;;3.97;;
15287;SDS011;7745;48.708;9.026;2022-08-02T11:12:15;4.00;;;3.60;;
15287;SDS011;7745;48.708;9.026;2022-08-02T11:14:44;3.60;;;3.30;;
15287;SDS011;7745;48.708;9.026;2022-08-02T11:17:12;7.25;;;3.67;;
15287;SDS011;7745;48.708;9.026;2022-08-02T11:22:44;4.40;;;3.22;;
15287;SDS011;7745;48.708;9.026;2022-08-02T11:27:59;3.75;;;3.42;;
15287;SDS011;7745;48.708;9.026;2022-08-02T11:30:34;4.57;;;3.03;;
15287;SDS011;7745;48.708;9.026;2022-08-02T11:33:01;39.00;;;5.65;;
15287;SDS011;7745;48.708;9.026;2022-08-02T11:35:34;4.68;;;2.63;;
15287;SDS011;7745;48.708;9.026;2022-08-02T11:38:12;2.88;;;2.63;;
15287;SDS011;7745;48.708;9.026;2022-08-02T11:40:40;3.20;;;2.92;;
15287;SDS011;7745;48.708;9.026;2022-08-02T11:43:20;4.68;;;2.65;;
15287;SDS011;7745;48.708;9.026;2022-08-02T11:45:48;3.95;;;3.22;;
15287;SDS011;7745;48.708;9.026;2022-08-02T11:48:30;5.53;;;2.88;;
15287;SDS011;7745;48.708;9.026;2022-08-02T11:51:06;2.70;;;2.50;;
15287;SDS011;7745;48.708;9.026;2022-08-02T11:53:47;4.63;;;2.95;;
15287;SDS011;7745;48.708;9.026;2022-08-02T11:56:15;10.07;;;3.33;;
15287;SDS011;7745;48.708;9.026;2022-08-02T11:58:58;3.58;;;2.75;;
15287;SDS011;7745;48.708;9.026;2022-08-02T12:01:26;3.03;;;2.60;;
15287;SDS011;7745;48.708;9.026;2022-08-02T12:03:53;3.03;;;2.83;;
15287;SDS011;7745;48.708;9.026;2022-08-02T12:06:26;6.63;;;2.67;;
15287;SDS011;7745;48.708;9.026;2022-08-02T12:08:57;3.15;;;2.83;;
15287;SDS011;7745;48.708;9.026;2022-08-02T12:11:25;3.67;;;3.00;;
15287;SDS011;7745;48.708;9.026;2022-08-02T12:13:52;3.60;;;3.30;;
15287;SDS011;7745;48.708;9.026;2022-08-02T12:16:19;4.05;;;2.72;;
15287;SDS011;7745;48.708;9.026;2022-08-02T12:19:03;2.97;;;2.70;;
15287;SDS011;7745;48.708;9.026;2022-08-02T12:21:53;3.20;;;2.75;;
15287;SDS011;7745;48.708;9.026;2022-08-02T12:24:32;3.35;;;2.85;;
15287;SDS011;7745;48.708;9.026;2022-08-02T12:26:59;6.10;;;2.90;;
15287;SDS011;7745;48.708;9.026;2022-08-02T12:29:30;4.55;;;2.95;;
15287;SDS011;7745;48.708;9.026;2022-08-02T12:31:57;3.47;;;3.05;;
15287;SDS011;7745;48.708;9.026;2022-08-02T12:34:24;2.95;;;2.75;;
15287;SDS011;7745;48.708;9.026;2022-08-02T12:36:57;3.20;;;2.95;;
15287;SDS011;7745;48.708;9.026;2022-08-02T12:39:33;3.70;;;3.40;;
15287;SDS011;7745;48.708;9.026;2022-08-02T12:42:04;5.20;;;3.35;;
15287;SDS011;7745;48.708;9.026;2022-08-02T12:44:32;3.47;;;3.20;;
15287;SDS011;7745;48.708;9.026;2022-08-02T12:47:01;3.63;;;3.33;;
15287;SDS011;7745;48.708;9.026;2022-08-02T12:49:29;3.65;;;2.83;;
15287;SDS011;7745;48.708;9.026;2022-08-02T12:51:57;3.20;;;2.83;;
15287;SDS011;7745;48.708;9.026;2022-08-02T12:54:25;3.35;;;2.90;;
15287;SDS011;7745;48.708;9.026;2022-08-02T12:56:53;3.80;;;2.92;;
15287;SDS011;7745;48.708;9.026;2022-08-02T12:59:32;4.38;;;2.90;;
15287;SDS011;7745;48.708;9.026;2022-08-02T13:02:01;9.73;;;3.03;;
15287;SDS011;7745;48.708;9.026;2022-08-02T13:04:29;4.75;;;2.78;;
15287;SDS011;7745;48.708;9.026;2022-08-02T13:06:58;2.90;;;2.70;;
15287;SDS011;7745;48.708;9.026;2022-08-02T13:09:24;3.95;;;2.35;;
15287;SDS011;7745;48.708;9.026;2022-08-02T13:11:52;6.40;;;3.10;;
15287;SDS011;7745;48.708;9.026;2022-08-02T13:14:18;5.00;;;2.60;;
15287;SDS011;7745;48.708;9.026;2022-08-02T13:16:45;4.65;;;2.80;;
15287;SDS011;7745;48.708;9.026;2022-08-02T13:19:13;4.40;;;2.70;;
15287;SDS011;7745;48.708;9.026;2022-08-02T13:21:40;5.53;;;3.10;;
15287;SDS011;7745;48.708;9.026;2022-08-02T13:24:09;4.63;;;2.60;;
15287;SDS011;7745;48.708;9.026;2022-08-02T13:26:38;3.75;;;3.10;;
15287;SDS011;7745;48.708;9.026;2022-08-02T13:29:06;5.60;;;2.75;;
15287;SDS011;7745;48.708;9.026;2022-08-02T13:31:33;2.85;;;2.65;;
15287;SDS011;7745;48.708;9.026;2022-08-02T13:34:01;2.97;;;2.58;;
15287;SDS011;7745;48.708;9.026;2022-08-02T13:36:28;5.05;;;3.00;;
15287;SDS011;7745;48.708;9.026;2022-08-02T13:38:55;4.05;;;2.72;;
15287;SDS011;7745;48.708;9.026;2022-08-02T13:41:24;4.13;;;2.80;;
15287;SDS011;7745;48.708;9.026;2022-08-02T13:43:50;3.40;;;2.85;;
15287;SDS011;7745;48.708;9.026;2022-08-02T13:46:17;5.40;;;3.00;;
15287;SDS011;7745;48.708;9.026;2022-08-02T13:48:45;5.97;;;3.17;;
15287;SDS011;7745;48.708;9.026;2022-08-02T13:51:12;7.13;;;2.70;;
15287;SDS011;7745;48.708;9.026;2022-08-02T13:53:39;3.40;;;2.60;;
15287;SDS011;7745;48.708;9.026;2022-08-02T13:56:06;4.40;;;2.90;;
15287;SDS011;7745;48.708;9.026;2022-08-02T13:58:35;3.00;;;2.75;;
15287;SDS011;7745;48.708;9.026;2022-08-02T14:01:01;4.47;;;3.10;;
15287;SDS011;7745;48.708;9.026;2022-08-02T14:03:28;3.05;;;2.70;;
15287;SDS011;7745;48.708;9.026;2022-08-02T14:05:55;5.93;;;2.80;;
15287;SDS011;7745;48.708;9.026;2022-08-02T14:08:22;2.83;;;2.60;;
15287;SDS011;7745;48.708;9.026;2022-08-02T14:10:50;6.75;;;2.63;;
15287;SDS011;7745;48.708;9.026;2022-08-02T14:13:17;5.05;;;2.90;;
15287;SDS011;7745;48.708;9.026;2022-08-02T14:15:45;5.18;;;2.60;;
15287;SDS011;7745;48.708;9.026;2022-08-02T14:18:12;2.80;;;2.60;;
15287;SDS011;7745;48.708;9.026;2022-08-02T14:20:40;4.38;;;2.55;;
15287;SDS011;7745;48.708;9.026;2022-08-02T14:23:07;3.97;;;2.63;;
15287;SDS011;7745;48.708;9.026;2022-08-02T14:25:34;3.88;;;2.58;;
15287;SDS011;7745;48.708;9.026;2022-08-02T14:28:00;3.05;;;2.70;;
15287;SDS011;7745;48.708;9.026;2022-08-02T14:30:27;3.08;;;2.70;;
15287;SDS011;7745;48.708;9.026;2022-08-02T14:32:56;2.78;;;2.50;;
15287;SDS011;7745;48.708;9.026;2022-08-02T14:35:23;2.70;;;2.50;;
15287;SDS011;7745;48.708;9.026;2022-08-02T14:37:49;3.53;;;2.33;;
15287;SDS011;7745;48.708;9.026;2022-08-02T14:40:16;6.43;;;2.47;;
15287;SDS011;7745;48.708;9.026;2022-08-02T14:42:43;3.70;;;2.70;;
15287;SDS011;7745;48.708;9.026;2022-08-02T14:45:10;2.50;;;2.30;;
15287;SDS011;7745;48.708;9.026;2022-08-02T14:47:37;2.63;;;2.30;;
15287;SDS011;7745;48.708;9.026;2022-08-02T14:50:05;2.80;;;2.60;;
15287;SDS011;7745;48.708;9.026;2022-08-02T14:52:33;3.22;;;2.20;;
15287;SDS011;7745;48.708;9.026;2022-08-02T14:55:00;2.90;;;2.40;;
15287;SDS011;7745;48.708;9.026;2022-08-02T14:57:28;3.85;;;2.80;;
15287;SDS011;7745;48.708;9.026;2022-08-02T14:59:55;4.32;;;2.42;;
15287;SDS011;7745;48.708;9.026;2022-08-02T15:02:24;3.42;;;2.60;;
15287;SDS011;7745;48.708;9.026;2022-08-02T15:04:51;6.00;;;2.78;;
15287;SDS011;7745;48.708;9.026;2022-08-02T15:07:20;3.47;;;2.60;;
15287;SDS011;7745;48.708;9.026;2022-08-02T15:09:47;3.63;;;2.80;;
15287;SDS011;7745;48.708;9.026;2022-08-02T15:12:15;3.08;;;2.80;;
15287;SDS011;7745;48.708;9.026;2022-08-02T15:14:41;3.60;;;2.80;;
15287;SDS011;7745;48.708;9.026;2022-08-02T15:17:09;3.40;;;2.88;;
15287;SDS011;7745;48.708;9.026;2022-08-02T15:19:36;3.05;;;2.50;;
15287;SDS011;7745;48.708;9.026;2022-08-02T15:22:04;4.03;;;2.58;;
15287;SDS011;7745;48.708;9.026;2022-08-02T15:24:32;2.92;;;2.38;;
15287;SDS011;7745;48.708;9.026;2022-08-02T15:26:59;2.92;;;2.67;;
15287;SDS011;7745;48.708;9.026;2022-08-02T15:29:26;3.13;;;2.83;;